sensor_id;sensor_type;location;lat;lon;timestamp;P1;durP1;ratioP1;P2;durP2;ratioP2
5612;SDS011;2828;53.582;9.956;2022-08-19T00:00:27;17.40;;;8.70;;
5612;SDS011;2828;53.582;9.956;2022-08-19T00:02:53;9.93;;;6.87;;
5612;SDS011;2828;53.582;9.956;2022-08-19T00:05:20;12.37;;;8.33;;
5612;SDS011;2828;53.582;9.956;2022-08-19T00:07:47;17.10;;;10.37;;
5612;SDS011;2828;53.582;9.956;2022-08-19T00:10:14;17.90;;;10.43;;
5612;SDS011;2828;53.582;9.956;2022-08-19T00:12:41;17.17;;;9.93;;
5612;SDS011;2828;53.582;9.956;2022-08-19T00:15:08;17.27;;;10.00;;
5612;SDS011;2828;53.582;9.956;2022-08-19T00:17:38;17.17;;;10.37;;
5612;SDS011;2828;53.582;9.956;2022-08-19T00:20:05;15.13;;;9.57;;
5612;SDS011;2828;53.582;9.956;2022-08-19T00:22:31;22.77;;;12.13;;
5612;SDS011;2828;53.582;9.956;2022-08-19T00:24:58;21.70;;;12.10;;
5612;SDS011;2828;53.582;9.956;2022-08-19T00:27:24;22.60;;;12.27;;
5612;SDS011;2828;53.582;9.956;2022-08-19T00:29:50;32.53;;;14.57;;
5612;SDS011;2828;53.582;9.956;2022-08-19T00:32:16;29.20;;;14.23;;
5612;SDS011;2828;53.582;9.956;2022-08-19T00:34:42;27.73;;;15.10;;
5612;SDS011;2828;53.582;9.956;2022-08-19T00:37:08;28.47;;;15.73;;
5612;SDS011;2828;53.582;9.956;2022-08-19T00:39:34;28.70;;;14.93;;
5612;SDS011;2828;53.582;9.956;2022-08-19T00:42:00;24.20;;;13.80;;
5612;SDS011;2828;53.582;9.956;2022-08-19T00:44:27;30.70;;;14.53;;
5612;SDS011;2828;53.582;9.956;2022-08-19T00:46:55;28.30;;;15.57;;
5612;SDS011;2828;53.582;9.956;2022-08-19T00:49:38;34.63;;;16.63;;
5612;SDS011;2828;53.582;9.956;2022-08-19T00:52:15;37.40;;;17.57;;
5612;SDS011;2828;53.582;9.956;2022-08-19T00:54:42;37.37;;;16.80;;
5612;SDS011;2828;53.582;9.956;2022-08-19T00:57:09;30.43;;;16.27;;
5612;SDS011;2828;53.582;9.956;2022-08-19T00:59:37;34.30;;;18.33;;
5612;SDS011;2828;53.582;9.956;2022-08-19T01:02:04;35.57;;;17.47;;
5612;SDS011;2828;53.582;9.956;2022-08-19T01:04:30;36.43;;;15.70;;
5612;SDS011;2828;53.582;9.956;2022-08-19T01:06:56;37.17;;;17.10;;
5612;SDS011;2828;53.582;9.956;2022-08-19T01:09:23;34.07;;;16.50;;
5612;SDS011;2828;53.582;9.956;2022-08-19T01:11:49;29.80;;;14.77;;
5612;SDS011;2828;53.582;9.956;2022-08-19T01:14:15;27.50;;;14.23;;
5612;SDS011;2828;53.582;9.956;2022-08-19T01:16:41;33.03;;;15.67;;
5612;SDS011;2828;53.582;9.956;2022-08-19T01:19:17;27.07;;;14.57;;
5612;SDS011;2828;53.582;9.956;2022-08-19T01:21:46;31.97;;;14.03;;
5612;SDS011;2828;53.582;9.956;2022-08-19T01:24:16;26.17;;;13.73;;
5612;SDS011;2828;53.582;9.956;2022-08-19T01:26:42;33.97;;;13.30;;
5612;SDS011;2828;53.582;9.956;2022-08-19T01:29:09;26.43;;;14.10;;
5612;SDS011;2828;53.582;9.956;2022-08-19T01:31:36;24.43;;;14.00;;
5612;SDS011;2828;53.582;9.956;2022-08-19T01:34:04;27.43;;;14.57;;
5612;SDS011;2828;53.582;9.956;2022-08-19T01:36:35;29.23;;;14.00;;
5612;SDS011;2828;53.582;9.956;2022-08-19T01:39:03;35.53;;;14.83;;
5612;SDS011;2828;53.582;9.956;2022-08-19T01:41:29;28.57;;;14.30;;
5612;SDS011;2828;53.582;9.956;2022-08-19T01:43:55;25.43;;;14.60;;
5612;SDS011;2828;53.582;9.956;2022-08-19T01:46:21;36.87;;;15.80;;
5612;SDS011;2828;53.582;9.956;2022-08-19T01:48:47;35.47;;;16.60;;
5612;SDS011;2828;53.582;9.956;2022-08-19T01:51:13;36.23;;;15.97;;
5612;SDS011;2828;53.582;9.956;2022-08-19T01:53:40;33.27;;;15.57;;
5612;SDS011;2828;53.582;9.956;2022-08-19T01:56:06;35.17;;;15.90;;
5612;SDS011;2828;53.582;9.956;2022-08-19T01:58:36;32.17;;;15.73;;
5612;SDS011;2828;53.582;9.956;2022-08-19T02:01:04;29.60;;;14.90;;
5612;SDS011;2828;53.582;9.956;2022-08-19T02:03:30;33.20;;;14.97;;
5612;SDS011;2828;53.582;9.956;2022-08-19T02:05:57;35.13;;;15.43;;
5612;SDS011;2828;53.582;9.956;2022-08-19T02:08:24;36.77;;;14.70;;
5612;SDS011;2828;53.582;9.956;2022-08-19T02:10:50;40.10;;;15.97;;
5612;SDS011;2828;53.582;9.956;2022-08-19T02:13:16;30.83;;;15.23;;
5612;SDS011;2828;53.582;9.956;2022-08-19T02:15:42;34.87;;;14.10;;
5612;SDS011;2828;53.582;9.956;2022-08-19T02:18:08;32.77;;;15.50;;
5612;SDS011;2828;53.582;9.956;2022-08-19T02:20:34;46.17;;;16.87;;
5612;SDS011;2828;53.582;9.956;2022-08-19T02:23:01;42.10;;;16.87;;
5612;SDS011;2828;53.582;9.956;2022-08-19T02:25:28;37.57;;;16.57;;
5612;SDS011;2828;53.582;9.956;2022-08-19T02:27:54;45.03;;;17.80;;
5612;SDS011;2828;53.582;9.956;2022-08-19T02:30:20;41.03;;;16.30;;
5612;SDS011;2828;53.582;9.956;2022-08-19T02:32:46;40.03;;;17.43;;
5612;SDS011;2828;53.582;9.956;2022-08-19T02:35:12;67.20;;;18.40;;
5612;SDS011;2828;53.582;9.956;2022-08-19T02:37:39;42.50;;;16.87;;
5612;SDS011;2828;53.582;9.956;2022-08-19T02:40:24;42.70;;;17.60;;
5612;SDS011;2828;53.582;9.956;2022-08-19T02:42:50;45.57;;;17.33;;
5612;SDS011;2828;53.582;9.956;2022-08-19T02:45:16;57.13;;;18.93;;
5612;SDS011;2828;53.582;9.956;2022-08-19T02:47:42;38.20;;;16.73;;
5612;SDS011;2828;53.582;9.956;2022-08-19T02:50:08;48.20;;;17.57;;
5612;SDS011;2828;53.582;9.956;2022-08-19T02:52:34;54.73;;;17.70;;
5612;SDS011;2828;53.582;9.956;2022-08-19T02:55:00;55.53;;;21.03;;
5612;SDS011;2828;53.582;9.956;2022-08-19T02:57:27;49.60;;;18.70;;
5612;SDS011;2828;53.582;9.956;2022-08-19T02:59:53;59.50;;;19.50;;
5612;SDS011;2828;53.582;9.956;2022-08-19T03:02:19;60.33;;;20.27;;
5612;SDS011;2828;53.582;9.956;2022-08-19T03:04:45;63.93;;;19.60;;
5612;SDS011;2828;53.582;9.956;2022-08-19T03:07:15;70.40;;;22.77;;
5612;SDS011;2828;53.582;9.956;2022-08-19T03:09:41;62.73;;;21.00;;
5612;SDS011;2828;53.582;9.956;2022-08-19T03:12:10;63.17;;;20.40;;
5612;SDS011;2828;53.582;9.956;2022-08-19T03:14:36;76.47;;;21.10;;
5612;SDS011;2828;53.582;9.956;2022-08-19T03:17:03;62.23;;;21.30;;
5612;SDS011;2828;53.582;9.956;2022-08-19T03:19:29;53.13;;;20.30;;
5612;SDS011;2828;53.582;9.956;2022-08-19T03:21:56;58.10;;;19.03;;
5612;SDS011;2828;53.582;9.956;2022-08-19T03:24:22;56.20;;;19.43;;
5612;SDS011;2828;53.582;9.956;2022-08-19T03:26:50;51.77;;;19.20;;
5612;SDS011;2828;53.582;9.956;2022-08-19T03:29:16;45.50;;;19.27;;
5612;SDS011;2828;53.582;9.956;2022-08-19T03:31:43;56.03;;;18.70;;
5612;SDS011;2828;53.582;9.956;2022-08-19T03:34:10;47.57;;;17.97;;
5612;SDS011;2828;53.582;9.956;2022-08-19T03:36:36;48.10;;;16.10;;
5612;SDS011;2828;53.582;9.956;2022-08-19T03:39:03;51.33;;;20.77;;
5612;SDS011;2828;53.582;9.956;2022-08-19T03:41:31;64.73;;;19.20;;
5612;SDS011;2828;53.582;9.956;2022-08-19T03:43:57;57.43;;;19.60;;
5612;SDS011;2828;53.582;9.956;2022-08-19T03:46:27;53.20;;;19.87;;
5612;SDS011;2828;53.582;9.956;2022-08-19T03:48:54;50.57;;;17.90;;
5612;SDS011;2828;53.582;9.956;2022-08-19T03:51:25;57.07;;;17.70;;
5612;SDS011;2828;53.582;9.956;2022-08-19T03:53:53;50.57;;;20.03;;
5612;SDS011;2828;53.582;9.956;2022-08-19T03:56:19;56.30;;;19.40;;
5612;SDS011;2828;53.582;9.956;2022-08-19T03:58:45;49.07;;;19.17;;
5612;SDS011;2828;53.582;9.956;2022-08-19T04:01:13;57.90;;;20.33;;
5612;SDS011;2828;53.582;9.956;2022-08-19T04:03:39;54.13;;;19.80;;
5612;SDS011;2828;53.582;9.956;2022-08-19T04:06:11;69.40;;;19.70;;
5612;SDS011;2828;53.582;9.956;2022-08-19T04:08:38;62.80;;;20.07;;
5612;SDS011;2828;53.582;9.956;2022-08-19T04:11:12;56.67;;;21.40;;
5612;SDS011;2828;53.582;9.956;2022-08-19T04:13:38;65.97;;;21.67;;
5612;SDS011;2828;53.582;9.956;2022-08-19T04:16:05;68.50;;;21.50;;
5612;SDS011;2828;53.582;9.956;2022-08-19T04:18:32;59.53;;;22.43;;
5612;SDS011;2828;53.582;9.956;2022-08-19T04:20:58;57.87;;;22.77;;
5612;SDS011;2828;53.582;9.956;2022-08-19T04:23:25;67.13;;;23.23;;
5612;SDS011;2828;53.582;9.956;2022-08-19T04:25:52;53.40;;;24.20;;
5612;SDS011;2828;53.582;9.956;2022-08-19T04:28:18;58.53;;;23.63;;
5612;SDS011;2828;53.582;9.956;2022-08-19T04:30:45;56.30;;;25.27;;
5612;SDS011;2828;53.582;9.956;2022-08-19T04:33:12;54.87;;;23.77;;
5612;SDS011;2828;53.582;9.956;2022-08-19T04:35:40;48.83;;;22.63;;
5612;SDS011;2828;53.582;9.956;2022-08-19T04:38:08;56.70;;;23.80;;
5612;SDS011;2828;53.582;9.956;2022-08-19T04:40:34;50.50;;;20.67;;
5612;SDS011;2828;53.582;9.956;2022-08-19T04:43:18;57.53;;;20.93;;
5612;SDS011;2828;53.582;9.956;2022-08-19T04:45:45;53.63;;;19.27;;
5612;SDS011;2828;53.582;9.956;2022-08-19T04:48:12;50.43;;;19.87;;
5612;SDS011;2828;53.582;9.956;2022-08-19T04:50:42;37.00;;;17.20;;
5612;SDS011;2828;53.582;9.956;2022-08-19T04:53:08;43.27;;;18.30;;
5612;SDS011;2828;53.582;9.956;2022-08-19T04:55:34;51.23;;;18.37;;
5612;SDS011;2828;53.582;9.956;2022-08-19T04:58:00;41.10;;;16.77;;
5612;SDS011;2828;53.582;9.956;2022-08-19T05:00:27;32.17;;;14.87;;
5612;SDS011;2828;53.582;9.956;2022-08-19T05:02:53;45.13;;;15.13;;
5612;SDS011;2828;53.582;9.956;2022-08-19T05:05:19;30.33;;;15.20;;
5612;SDS011;2828;53.582;9.956;2022-08-19T05:07:45;37.47;;;15.57;;
5612;SDS011;2828;53.582;9.956;2022-08-19T05:10:11;32.40;;;17.13;;
5612;SDS011;2828;53.582;9.956;2022-08-19T05:12:37;30.73;;;14.93;;
5612;SDS011;2828;53.582;9.956;2022-08-19T05:15:04;35.63;;;13.37;;
5612;SDS011;2828;53.582;9.956;2022-08-19T05:17:31;34.43;;;15.47;;
5612;SDS011;2828;53.582;9.956;2022-08-19T05:19:57;29.20;;;13.80;;
5612;SDS011;2828;53.582;9.956;2022-08-19T05:22:42;41.30;;;15.07;;
5612;SDS011;2828;53.582;9.956;2022-08-19T05:25:10;28.20;;;14.10;;
5612;SDS011;2828;53.582;9.956;2022-08-19T05:27:37;31.73;;;13.03;;
5612;SDS011;2828;53.582;9.956;2022-08-19T05:30:03;34.93;;;14.33;;
5612;SDS011;2828;53.582;9.956;2022-08-19T05:32:29;30.27;;;13.50;;
5612;SDS011;2828;53.582;9.956;2022-08-19T05:34:55;28.97;;;12.90;;
5612;SDS011;2828;53.582;9.956;2022-08-19T05:37:22;24.93;;;11.70;;
5612;SDS011;2828;53.582;9.956;2022-08-19T05:39:48;34.40;;;13.50;;
5612;SDS011;2828;53.582;9.956;2022-08-19T05:42:14;30.73;;;13.17;;
5612;SDS011;2828;53.582;9.956;2022-08-19T05:44:42;22.50;;;13.30;;
5612;SDS011;2828;53.582;9.956;2022-08-19T05:47:12;28.10;;;13.90;;
5612;SDS011;2828;53.582;9.956;2022-08-19T05:49:39;27.83;;;13.07;;
5612;SDS011;2828;53.582;9.956;2022-08-19T05:52:06;28.00;;;12.10;;
5612;SDS011;2828;53.582;9.956;2022-08-19T05:54:34;20.60;;;11.70;;
5612;SDS011;2828;53.582;9.956;2022-08-19T05:57:01;30.43;;;12.20;;
5612;SDS011;2828;53.582;9.956;2022-08-19T05:59:27;31.73;;;13.37;;
5612;SDS011;2828;53.582;9.956;2022-08-19T06:01:53;25.90;;;12.13;;
5612;SDS011;2828;53.582;9.956;2022-08-19T06:04:20;27.63;;;12.07;;
5612;SDS011;2828;53.582;9.956;2022-08-19T06:06:47;24.27;;;11.97;;
5612;SDS011;2828;53.582;9.956;2022-08-19T06:09:13;33.53;;;13.40;;
5612;SDS011;2828;53.582;9.956;2022-08-19T06:11:40;31.97;;;13.60;;
5612;SDS011;2828;53.582;9.956;2022-08-19T06:14:10;26.73;;;12.10;;
5612;SDS011;2828;53.582;9.956;2022-08-19T06:16:37;28.47;;;13.07;;
5612;SDS011;2828;53.582;9.956;2022-08-19T06:19:04;37.13;;;14.33;;
5612;SDS011;2828;53.582;9.956;2022-08-19T06:21:31;32.30;;;14.43;;
5612;SDS011;2828;53.582;9.956;2022-08-19T06:23:58;38.80;;;12.40;;
5612;SDS011;2828;53.582;9.956;2022-08-19T06:26:24;31.27;;;12.63;;
5612;SDS011;2828;53.582;9.956;2022-08-19T06:28:51;31.80;;;12.13;;
5612;SDS011;2828;53.582;9.956;2022-08-19T06:31:21;31.27;;;14.40;;
5612;SDS011;2828;53.582;9.956;2022-08-19T06:33:48;33.23;;;12.63;;
5612;SDS011;2828;53.582;9.956;2022-08-19T06:36:22;25.40;;;12.80;;
5612;SDS011;2828;53.582;9.956;2022-08-19T06:38:54;22.20;;;11.43;;
5612;SDS011;2828;53.582;9.956;2022-08-19T06:41:22;25.97;;;12.40;;
5612;SDS011;2828;53.582;9.956;2022-08-19T06:43:48;39.90;;;13.43;;
5612;SDS011;2828;53.582;9.956;2022-08-19T06:46:14;30.67;;;12.23;;
5612;SDS011;2828;53.582;9.956;2022-08-19T06:48:41;25.50;;;12.60;;
5612;SDS011;2828;53.582;9.956;2022-08-19T06:51:07;29.80;;;12.80;;
5612;SDS011;2828;53.582;9.956;2022-08-19T06:53:33;31.73;;;12.90;;
5612;SDS011;2828;53.582;9.956;2022-08-19T06:55:59;26.57;;;13.57;;
5612;SDS011;2828;53.582;9.956;2022-08-19T06:58:28;27.83;;;13.07;;
5612;SDS011;2828;53.582;9.956;2022-08-19T07:00:57;25.87;;;12.13;;
5612;SDS011;2828;53.582;9.956;2022-08-19T07:03:27;29.90;;;13.00;;
5612;SDS011;2828;53.582;9.956;2022-08-19T07:05:53;27.00;;;12.33;;
5612;SDS011;2828;53.582;9.956;2022-08-19T07:08:19;25.50;;;12.33;;
5612;SDS011;2828;53.582;9.956;2022-08-19T07:10:45;23.60;;;11.93;;
5612;SDS011;2828;53.582;9.956;2022-08-19T07:13:12;23.40;;;11.23;;
5612;SDS011;2828;53.582;9.956;2022-08-19T07:15:38;25.03;;;11.10;;
5612;SDS011;2828;53.582;9.956;2022-08-19T07:18:04;21.00;;;9.80;;
5612;SDS011;2828;53.582;9.956;2022-08-19T07:20:30;18.03;;;9.57;;
5612;SDS011;2828;53.582;9.956;2022-08-19T07:22:57;16.43;;;9.77;;
5612;SDS011;2828;53.582;9.956;2022-08-19T07:25:23;16.60;;;9.70;;
5612;SDS011;2828;53.582;9.956;2022-08-19T07:27:49;11.90;;;8.47;;
5612;SDS011;2828;53.582;9.956;2022-08-19T07:30:16;18.67;;;9.83;;
5612;SDS011;2828;53.582;9.956;2022-08-19T07:32:42;17.40;;;8.73;;
5612;SDS011;2828;53.582;9.956;2022-08-19T07:35:09;17.53;;;10.70;;
5612;SDS011;2828;53.582;9.956;2022-08-19T07:37:35;14.93;;;8.20;;
5612;SDS011;2828;53.582;9.956;2022-08-19T07:40:03;15.47;;;9.20;;
5612;SDS011;2828;53.582;9.956;2022-08-19T07:42:30;18.00;;;8.03;;
5612;SDS011;2828;53.582;9.956;2022-08-19T07:44:56;10.73;;;7.50;;
5612;SDS011;2828;53.582;9.956;2022-08-19T07:47:23;15.00;;;7.33;;
5612;SDS011;2828;53.582;9.956;2022-08-19T07:49:48;11.63;;;8.10;;
5612;SDS011;2828;53.582;9.956;2022-08-19T07:52:14;34.90;;;7.97;;
5612;SDS011;2828;53.582;9.956;2022-08-19T07:54:41;18.90;;;8.97;;
5612;SDS011;2828;53.582;9.956;2022-08-19T07:57:08;17.00;;;7.90;;
5612;SDS011;2828;53.582;9.956;2022-08-19T07:59:34;14.27;;;8.13;;
5612;SDS011;2828;53.582;9.956;2022-08-19T08:02:01;10.00;;;7.20;;
5612;SDS011;2828;53.582;9.956;2022-08-19T08:04:28;11.40;;;6.70;;
5612;SDS011;2828;53.582;9.956;2022-08-19T08:07:12;11.23;;;6.90;;
5612;SDS011;2828;53.582;9.956;2022-08-19T08:09:57;12.07;;;7.37;;
5612;SDS011;2828;53.582;9.956;2022-08-19T08:12:29;11.03;;;7.00;;
5612;SDS011;2828;53.582;9.956;2022-08-19T08:14:57;17.10;;;9.00;;
5612;SDS011;2828;53.582;9.956;2022-08-19T08:17:25;17.33;;;9.00;;
5612;SDS011;2828;53.582;9.956;2022-08-19T08:19:51;20.63;;;9.97;;
5612;SDS011;2828;53.582;9.956;2022-08-19T08:22:19;21.90;;;11.43;;
5612;SDS011;2828;53.582;9.956;2022-08-19T08:25:13;23.27;;;11.10;;
5612;SDS011;2828;53.582;9.956;2022-08-19T08:27:40;29.77;;;10.90;;
5612;SDS011;2828;53.582;9.956;2022-08-19T08:30:07;21.03;;;9.53;;
5612;SDS011;2828;53.582;9.956;2022-08-19T08:32:35;17.90;;;9.40;;
5612;SDS011;2828;53.582;9.956;2022-08-19T08:35:01;22.53;;;9.77;;
5612;SDS011;2828;53.582;9.956;2022-08-19T08:37:28;31.97;;;11.53;;
5612;SDS011;2828;53.582;9.956;2022-08-19T08:39:54;22.83;;;10.40;;
5612;SDS011;2828;53.582;9.956;2022-08-19T08:42:22;20.97;;;11.43;;
5612;SDS011;2828;53.582;9.956;2022-08-19T08:47:17;39.30;;;12.20;;
5612;SDS011;2828;53.582;9.956;2022-08-19T08:52:11;25.33;;;11.60;;
5612;SDS011;2828;53.582;9.956;2022-08-19T08:54:42;25.97;;;10.70;;
5612;SDS011;2828;53.582;9.956;2022-08-19T08:57:13;24.53;;;10.40;;
5612;SDS011;2828;53.582;9.956;2022-08-19T08:59:40;24.50;;;10.73;;
5612;SDS011;2828;53.582;9.956;2022-08-19T09:02:07;16.37;;;10.03;;
5612;SDS011;2828;53.582;9.956;2022-08-19T09:04:34;19.00;;;9.70;;
5612;SDS011;2828;53.582;9.956;2022-08-19T09:09:46;26.60;;;10.60;;
5612;SDS011;2828;53.582;9.956;2022-08-19T09:15:04;20.30;;;10.23;;
5612;SDS011;2828;53.582;9.956;2022-08-19T09:17:32;26.40;;;10.90;;
5612;SDS011;2828;53.582;9.956;2022-08-19T09:20:24;19.00;;;9.80;;
5612;SDS011;2828;53.582;9.956;2022-08-19T09:22:49;25.53;;;10.27;;
5612;SDS011;2828;53.582;9.956;2022-08-19T09:25:16;18.20;;;9.53;;
5612;SDS011;2828;53.582;9.956;2022-08-19T09:27:43;16.07;;;8.50;;
5612;SDS011;2828;53.582;9.956;2022-08-19T09:30:17;21.80;;;10.37;;
5612;SDS011;2828;53.582;9.956;2022-08-19T09:32:46;17.00;;;10.27;;
5612;SDS011;2828;53.582;9.956;2022-08-19T09:35:12;19.43;;;9.90;;
5612;SDS011;2828;53.582;9.956;2022-08-19T09:37:38;23.23;;;9.93;;
5612;SDS011;2828;53.582;9.956;2022-08-19T09:40:05;21.33;;;11.57;;
5612;SDS011;2828;53.582;9.956;2022-08-19T09:42:31;18.20;;;10.80;;
5612;SDS011;2828;53.582;9.956;2022-08-19T09:44:58;19.13;;;10.17;;
5612;SDS011;2828;53.582;9.956;2022-08-19T09:47:24;24.40;;;11.67;;
5612;SDS011;2828;53.582;9.956;2022-08-19T09:49:50;18.13;;;10.47;;
5612;SDS011;2828;53.582;9.956;2022-08-19T09:52:16;18.57;;;10.87;;
5612;SDS011;2828;53.582;9.956;2022-08-19T09:54:43;23.00;;;11.70;;
5612;SDS011;2828;53.582;9.956;2022-08-19T09:57:09;25.50;;;12.57;;
5612;SDS011;2828;53.582;9.956;2022-08-19T09:59:35;20.90;;;11.93;;
5612;SDS011;2828;53.582;9.956;2022-08-19T10:02:01;24.53;;;12.30;;
5612;SDS011;2828;53.582;9.956;2022-08-19T10:04:27;22.53;;;13.17;;
5612;SDS011;2828;53.582;9.956;2022-08-19T10:07:13;25.53;;;12.60;;
5612;SDS011;2828;53.582;9.956;2022-08-19T10:09:40;19.70;;;12.20;;
5612;SDS011;2828;53.582;9.956;2022-08-19T10:12:06;25.30;;;14.07;;
5612;SDS011;2828;53.582;9.956;2022-08-19T10:14:32;26.80;;;12.97;;
5612;SDS011;2828;53.582;9.956;2022-08-19T10:16:59;23.90;;;13.23;;
5612;SDS011;2828;53.582;9.956;2022-08-19T10:19:25;36.23;;;14.07;;
5612;SDS011;2828;53.582;9.956;2022-08-19T10:21:57;28.07;;;14.40;;
5612;SDS011;2828;53.582;9.956;2022-08-19T10:24:23;24.80;;;12.80;;
5612;SDS011;2828;53.582;9.956;2022-08-19T10:26:50;25.40;;;14.63;;
5612;SDS011;2828;53.582;9.956;2022-08-19T10:29:16;27.20;;;14.27;;
5612;SDS011;2828;53.582;9.956;2022-08-19T10:31:42;25.00;;;13.03;;
5612;SDS011;2828;53.582;9.956;2022-08-19T10:34:08;28.57;;;13.90;;
5612;SDS011;2828;53.582;9.956;2022-08-19T10:36:35;26.80;;;12.37;;
5612;SDS011;2828;53.582;9.956;2022-08-19T10:39:03;28.43;;;12.43;;
5612;SDS011;2828;53.582;9.956;2022-08-19T10:41:30;32.27;;;13.77;;
5612;SDS011;2828;53.582;9.956;2022-08-19T10:43:58;26.60;;;13.10;;
5612;SDS011;2828;53.582;9.956;2022-08-19T10:46:25;28.27;;;13.47;;
5612;SDS011;2828;53.582;9.956;2022-08-19T10:48:52;30.23;;;12.73;;
5612;SDS011;2828;53.582;9.956;2022-08-19T10:51:18;43.10;;;15.67;;
5612;SDS011;2828;53.582;9.956;2022-08-19T10:54:03;30.20;;;14.50;;
5612;SDS011;2828;53.582;9.956;2022-08-19T10:56:30;31.57;;;13.33;;
5612;SDS011;2828;53.582;9.956;2022-08-19T10:59:15;24.17;;;12.90;;
5612;SDS011;2828;53.582;9.956;2022-08-19T11:01:42;28.10;;;14.77;;
5612;SDS011;2828;53.582;9.956;2022-08-19T11:04:08;29.43;;;13.43;;
5612;SDS011;2828;53.582;9.956;2022-08-19T11:06:36;29.67;;;14.13;;
5612;SDS011;2828;53.582;9.956;2022-08-19T11:09:03;27.87;;;13.47;;
5612;SDS011;2828;53.582;9.956;2022-08-19T11:11:30;29.37;;;14.00;;
5612;SDS011;2828;53.582;9.956;2022-08-19T11:13:57;30.53;;;14.20;;
5612;SDS011;2828;53.582;9.956;2022-08-19T11:16:25;23.13;;;12.57;;
5612;SDS011;2828;53.582;9.956;2022-08-19T11:18:52;26.50;;;13.07;;
5612;SDS011;2828;53.582;9.956;2022-08-19T11:21:20;25.10;;;13.03;;
5612;SDS011;2828;53.582;9.956;2022-08-19T11:23:47;28.37;;;14.97;;
5612;SDS011;2828;53.582;9.956;2022-08-19T11:26:14;21.77;;;11.83;;
5612;SDS011;2828;53.582;9.956;2022-08-19T11:28:41;28.30;;;13.47;;
5612;SDS011;2828;53.582;9.956;2022-08-19T11:31:10;21.50;;;11.67;;
5612;SDS011;2828;53.582;9.956;2022-08-19T11:33:36;22.37;;;12.40;;
5612;SDS011;2828;53.582;9.956;2022-08-19T11:36:03;27.37;;;13.47;;
5612;SDS011;2828;53.582;9.956;2022-08-19T11:38:29;19.03;;;11.97;;
5612;SDS011;2828;53.582;9.956;2022-08-19T11:40:59;19.30;;;10.83;;
5612;SDS011;2828;53.582;9.956;2022-08-19T11:43:25;25.00;;;11.93;;
5612;SDS011;2828;53.582;9.956;2022-08-19T11:45:53;21.63;;;12.03;;
5612;SDS011;2828;53.582;9.956;2022-08-19T11:48:19;19.90;;;12.10;;
5612;SDS011;2828;53.582;9.956;2022-08-19T11:50:49;23.60;;;12.20;;
5612;SDS011;2828;53.582;9.956;2022-08-19T11:53:17;24.30;;;12.30;;
5612;SDS011;2828;53.582;9.956;2022-08-19T11:55:43;22.87;;;12.43;;
5612;SDS011;2828;53.582;9.956;2022-08-19T11:58:10;21.83;;;11.07;;
5612;SDS011;2828;53.582;9.956;2022-08-19T12:00:37;20.17;;;11.60;;
5612;SDS011;2828;53.582;9.956;2022-08-19T12:03:03;15.57;;;10.10;;
5612;SDS011;2828;53.582;9.956;2022-08-19T12:05:29;19.00;;;11.17;;
5612;SDS011;2828;53.582;9.956;2022-08-19T12:07:55;19.07;;;11.53;;
5612;SDS011;2828;53.582;9.956;2022-08-19T12:10:22;20.57;;;11.50;;
5612;SDS011;2828;53.582;9.956;2022-08-19T12:12:48;16.47;;;11.47;;
5612;SDS011;2828;53.582;9.956;2022-08-19T12:15:14;19.73;;;12.60;;
5612;SDS011;2828;53.582;9.956;2022-08-19T12:17:41;22.60;;;11.30;;
5612;SDS011;2828;53.582;9.956;2022-08-19T12:20:11;19.17;;;11.20;;
5612;SDS011;2828;53.582;9.956;2022-08-19T12:22:42;19.33;;;10.90;;
5612;SDS011;2828;53.582;9.956;2022-08-19T12:25:10;20.20;;;11.43;;
5612;SDS011;2828;53.582;9.956;2022-08-19T12:27:41;19.50;;;10.83;;
5612;SDS011;2828;53.582;9.956;2022-08-19T12:30:08;19.63;;;11.37;;
5612;SDS011;2828;53.582;9.956;2022-08-19T12:32:35;18.03;;;11.47;;
5612;SDS011;2828;53.582;9.956;2022-08-19T12:35:02;22.90;;;11.67;;
5612;SDS011;2828;53.582;9.956;2022-08-19T12:37:28;20.80;;;11.77;;
5612;SDS011;2828;53.582;9.956;2022-08-19T12:39:54;22.00;;;11.50;;
5612;SDS011;2828;53.582;9.956;2022-08-19T12:42:20;18.60;;;11.83;;
5612;SDS011;2828;53.582;9.956;2022-08-19T12:44:47;19.33;;;10.83;;
5612;SDS011;2828;53.582;9.956;2022-08-19T12:47:14;16.50;;;10.70;;
5612;SDS011;2828;53.582;9.956;2022-08-19T12:49:40;19.80;;;11.53;;
5612;SDS011;2828;53.582;9.956;2022-08-19T12:52:06;14.20;;;9.50;;
5612;SDS011;2828;53.582;9.956;2022-08-19T12:54:33;17.33;;;10.83;;
5612;SDS011;2828;53.582;9.956;2022-08-19T12:57:00;16.20;;;9.90;;
5612;SDS011;2828;53.582;9.956;2022-08-19T12:59:26;13.70;;;9.57;;
5612;SDS011;2828;53.582;9.956;2022-08-19T13:01:52;14.90;;;9.40;;
5612;SDS011;2828;53.582;9.956;2022-08-19T13:04:18;12.70;;;9.00;;
5612;SDS011;2828;53.582;9.956;2022-08-19T13:06:44;16.40;;;9.90;;
5612;SDS011;2828;53.582;9.956;2022-08-19T13:09:10;17.10;;;9.93;;
5612;SDS011;2828;53.582;9.956;2022-08-19T13:11:36;16.57;;;10.40;;
5612;SDS011;2828;53.582;9.956;2022-08-19T13:14:03;14.80;;;9.80;;
5612;SDS011;2828;53.582;9.956;2022-08-19T13:16:29;14.87;;;9.70;;
5612;SDS011;2828;53.582;9.956;2022-08-19T13:18:56;14.10;;;10.10;;
5612;SDS011;2828;53.582;9.956;2022-08-19T13:21:26;18.57;;;10.43;;
5612;SDS011;2828;53.582;9.956;2022-08-19T13:23:52;15.07;;;11.30;;
5612;SDS011;2828;53.582;9.956;2022-08-19T13:26:19;18.50;;;9.93;;
5612;SDS011;2828;53.582;9.956;2022-08-19T13:28:45;12.57;;;8.93;;
5612;SDS011;2828;53.582;9.956;2022-08-19T13:31:31;15.07;;;10.40;;
5612;SDS011;2828;53.582;9.956;2022-08-19T13:34:17;16.13;;;10.73;;
5612;SDS011;2828;53.582;9.956;2022-08-19T13:36:44;17.70;;;11.13;;
5612;SDS011;2828;53.582;9.956;2022-08-19T13:39:11;16.60;;;10.50;;
5612;SDS011;2828;53.582;9.956;2022-08-19T13:41:37;14.63;;;10.17;;
5612;SDS011;2828;53.582;9.956;2022-08-19T13:44:08;17.07;;;11.40;;
5612;SDS011;2828;53.582;9.956;2022-08-19T13:46:34;16.20;;;11.33;;
5612;SDS011;2828;53.582;9.956;2022-08-19T13:49:00;24.87;;;13.07;;
5612;SDS011;2828;53.582;9.956;2022-08-19T13:51:26;19.80;;;11.87;;
5612;SDS011;2828;53.582;9.956;2022-08-19T13:53:52;16.00;;;10.63;;
5612;SDS011;2828;53.582;9.956;2022-08-19T13:56:20;19.53;;;11.67;;
5612;SDS011;2828;53.582;9.956;2022-08-19T13:58:46;17.93;;;11.93;;
5612;SDS011;2828;53.582;9.956;2022-08-19T14:01:12;16.17;;;10.87;;
5612;SDS011;2828;53.582;9.956;2022-08-19T14:03:38;15.63;;;9.83;;
5612;SDS011;2828;53.582;9.956;2022-08-19T14:06:03;19.23;;;10.37;;
5612;SDS011;2828;53.582;9.956;2022-08-19T14:08:30;17.73;;;10.97;;
5612;SDS011;2828;53.582;9.956;2022-08-19T14:10:57;18.90;;;10.87;;
5612;SDS011;2828;53.582;9.956;2022-08-19T14:13:24;18.20;;;11.60;;
5612;SDS011;2828;53.582;9.956;2022-08-19T14:15:50;18.83;;;11.33;;
5612;SDS011;2828;53.582;9.956;2022-08-19T14:18:17;15.50;;;10.00;;
5612;SDS011;2828;53.582;9.956;2022-08-19T14:20:44;19.00;;;11.10;;
5612;SDS011;2828;53.582;9.956;2022-08-19T14:23:10;18.13;;;12.23;;
5612;SDS011;2828;53.582;9.956;2022-08-19T14:25:37;15.33;;;11.13;;
5612;SDS011;2828;53.582;9.956;2022-08-19T14:28:03;16.83;;;10.70;;
5612;SDS011;2828;53.582;9.956;2022-08-19T14:30:30;21.50;;;11.70;;
5612;SDS011;2828;53.582;9.956;2022-08-19T14:32:57;17.47;;;11.63;;
5612;SDS011;2828;53.582;9.956;2022-08-19T14:35:24;17.97;;;11.90;;
5612;SDS011;2828;53.582;9.956;2022-08-19T14:37:53;20.03;;;11.70;;
5612;SDS011;2828;53.582;9.956;2022-08-19T14:40:20;21.30;;;11.20;;
5612;SDS011;2828;53.582;9.956;2022-08-19T14:42:48;20.47;;;11.87;;
5612;SDS011;2828;53.582;9.956;2022-08-19T14:45:14;15.70;;;10.73;;
5612;SDS011;2828;53.582;9.956;2022-08-19T14:47:40;17.43;;;10.53;;
5612;SDS011;2828;53.582;9.956;2022-08-19T14:50:07;17.67;;;10.88;;
5612;SDS011;2828;53.582;9.956;2022-08-19T14:52:33;19.00;;;11.17;;
5612;SDS011;2828;53.582;9.956;2022-08-19T14:54:59;16.40;;;10.70;;
5612;SDS011;2828;53.582;9.956;2022-08-19T14:57:25;15.45;;;10.13;;
5612;SDS011;2828;53.582;9.956;2022-08-19T14:59:51;18.20;;;10.10;;
5612;SDS011;2828;53.582;9.956;2022-08-19T15:02:17;17.10;;;10.90;;